sensor_id;sensor_type;location;lat;lon;timestamp;pressure;altitude;pressure_sealevel;temperature;humidity
13124;BME280;6627;50.920;12.050;2022-10-18T00:00:54;99911.22;;;19.19;75.11
13124;BME280;6627;50.920;12.050;2022-10-18T00:03:22;99913.75;;;19.24;75.07
13124;BME280;6627;50.920;12.050;2022-10-18T00:05:50;99912.38;;;19.09;77.31
13124;BME280;6627;50.920;12.050;2022-10-18T00:08:19;99909.72;;;19.30;76.23
13124;BME280;6627;50.920;12.050;2022-10-18T00:10:47;99921.56;;;19.81;75.37
13124;BME280;6627;50.920;12.050;2022-10-18T00:13:15;99915.13;;;19.77;74.34
13124;BME280;6627;50.920;12.050;2022-10-18T00:15:48;99913.22;;;19.99;73.16
13124;BME280;6627;50.920;12.050;2022-10-18T00:18:16;99923.06;;;20.00;72.97
13124;BME280;6627;50.920;12.050;2022-10-18T00:20:44;99915.88;;;19.86;72.55
13124;BME280;6627;50.920;12.050;2022-10-18T00:23:12;99932.19;;;19.91;72.97
13124;BME280;6627;50.920;12.050;2022-10-18T00:25:41;99933.53;;;20.06;72.50
13124;BME280;6627;50.920;12.050;2022-10-18T00:28:08;99934.56;;;20.02;72.18
13124;BME280;6627;50.920;12.050;2022-10-18T00:30:36;99931.03;;;20.13;71.74
13124;BME280;6627;50.920;12.050;2022-10-18T00:33:03;99928.88;;;19.77;71.96
13124;BME280;6627;50.920;12.050;2022-10-18T00:35:33;99923.63;;;19.55;72.48
13124;BME280;6627;50.920;12.050;2022-10-18T00:38:01;99922.13;;;19.36;72.87
13124;BME280;6627;50.920;12.050;2022-10-18T00:40:29;99907.31;;;19.20;73.37
13124;BME280;6627;50.920;12.050;2022-10-18T00:42:58;99905.78;;;19.02;73.86
13124;BME280;6627;50.920;12.050;2022-10-18T00:45:25;99899.31;;;18.98;73.89
13124;BME280;6627;50.920;12.050;2022-10-18T00:47:55;99894.19;;;18.96;74.28
13124;BME280;6627;50.920;12.050;2022-10-18T00:50:26;99920.56;;;19.56;73.24
13124;BME280;6627;50.920;12.050;2022-10-18T00:52:57;99902.50;;;19.47;72.66
13124;BME280;6627;50.920;12.050;2022-10-18T00:55:27;99891.59;;;19.29;72.78
13124;BME280;6627;50.920;12.050;2022-10-18T00:57:58;99903.66;;;19.46;72.60
13124;BME280;6627;50.920;12.050;2022-10-18T01:00:27;99883.28;;;18.53;74.64
13124;BME280;6627;50.920;12.050;2022-10-18T01:02:55;99905.19;;;18.87;75.06
13124;BME280;6627;50.920;12.050;2022-10-18T01:05:25;99861.88;;;18.20;76.99
13124;BME280;6627;50.920;12.050;2022-10-18T01:08:12;99872.66;;;18.25;78.36
13124;BME280;6627;50.920;12.050;2022-10-18T01:10:48;99865.53;;;18.41;78.23
13124;BME280;6627;50.920;12.050;2022-10-18T01:13:33;99857.50;;;18.19;78.95
13124;BME280;6627;50.920;12.050;2022-10-18T01:16:08;99880.75;;;18.95;76.82
13124;BME280;6627;50.920;12.050;2022-10-18T01:18:42;99891.06;;;19.45;75.09
13124;BME280;6627;50.920;12.050;2022-10-18T01:21:21;99859.88;;;18.55;75.77
13124;BME280;6627;50.920;12.050;2022-10-18T01:27:13;99889.53;;;19.26;75.15
13124;BME280;6627;50.920;12.050;2022-10-18T01:29:57;99898.09;;;19.54;73.52
13124;BME280;6627;50.920;12.050;2022-10-18T01:32:35;99890.19;;;19.23;73.74
13124;BME280;6627;50.920;12.050;2022-10-18T01:35:09;99927.72;;;19.78;73.39
13124;BME280;6627;50.920;12.050;2022-10-18T01:37:43;99935.31;;;19.81;72.80
13124;BME280;6627;50.920;12.050;2022-10-18T01:40:13;99929.06;;;19.72;72.82
13124;BME280;6627;50.920;12.050;2022-10-18T01:42:43;99937.78;;;19.74;72.72
13124;BME280;6627;50.920;12.050;2022-10-18T01:45:12;99946.06;;;19.65;73.45
13124;BME280;6627;50.920;12.050;2022-10-18T01:47:44;99940.22;;;19.76;72.65
13124;BME280;6627;50.920;12.050;2022-10-18T01:50:13;99940.38;;;19.79;72.63
13124;BME280;6627;50.920;12.050;2022-10-18T01:52:47;99935.59;;;19.59;72.66
13124;BME280;6627;50.920;12.050;2022-10-18T01:55:15;99946.53;;;19.76;72.76
13124;BME280;6627;50.920;12.050;2022-10-18T01:57:48;99943.91;;;19.80;72.78
13124;BME280;6627;50.920;12.050;2022-10-18T02:00:22;99952.00;;;20.06;72.23
13124;BME280;6627;50.920;12.050;2022-10-18T02:02:58;99947.06;;;19.90;72.07
13124;BME280;6627;50.920;12.050;2022-10-18T02:05:31;99955.41;;;20.03;71.83
13124;BME280;6627;50.920;12.050;2022-10-18T02:08:07;99938.72;;;19.78;72.27
13124;BME280;6627;50.920;12.050;2022-10-18T02:10:41;99967.63;;;20.14;72.10
13124;BME280;6627;50.920;12.050;2022-10-18T02:13:12;99947.63;;;20.05;71.60
13124;BME280;6627;50.920;12.050;2022-10-18T02:15:45;99943.72;;;19.85;72.37
13124;BME280;6627;50.920;12.050;2022-10-18T02:18:19;99943.38;;;19.86;72.30
13124;BME280;6627;50.920;12.050;2022-10-18T02:20:51;99937.47;;;19.76;72.92
13124;BME280;6627;50.920;12.050;2022-10-18T02:23:22;99940.78;;;20.11;71.47
13124;BME280;6627;50.920;12.050;2022-10-18T02:25:51;99939.56;;;20.00;71.45
13124;BME280;6627;50.920;12.050;2022-10-18T02:28:20;99958.25;;;20.15;71.69
13124;BME280;6627;50.920;12.050;2022-10-18T02:30:53;99945.88;;;20.00;71.40
13124;BME280;6627;50.920;12.050;2022-10-18T02:33:31;99940.25;;;19.97;71.30
13124;BME280;6627;50.920;12.050;2022-10-18T02:36:03;99945.16;;;20.12;71.09
13124;BME280;6627;50.920;12.050;2022-10-18T02:38:33;99963.41;;;20.16;71.00
13124;BME280;6627;50.920;12.050;2022-10-18T02:41:01;99954.88;;;19.88;71.34
13124;BME280;6627;50.920;12.050;2022-10-18T02:43:28;99965.25;;;20.04;71.52
13124;BME280;6627;50.920;12.050;2022-10-18T02:45:56;99965.97;;;19.92;72.99
13124;BME280;6627;50.920;12.050;2022-10-18T02:48:25;99961.31;;;19.93;72.55
13124;BME280;6627;50.920;12.050;2022-10-18T02:50:53;99966.94;;;20.17;72.07
13124;BME280;6627;50.920;12.050;2022-10-18T02:53:21;99960.38;;;20.09;71.82
13124;BME280;6627;50.920;12.050;2022-10-18T02:55:49;99945.09;;;19.70;72.73
13124;BME280;6627;50.920;12.050;2022-10-18T02:58:17;99962.31;;;20.09;72.08
13124;BME280;6627;50.920;12.050;2022-10-18T03:00:44;99962.75;;;19.90;72.70
13124;BME280;6627;50.920;12.050;2022-10-18T03:03:12;99958.63;;;20.05;72.35
13124;BME280;6627;50.920;12.050;2022-10-18T03:05:41;99949.06;;;19.81;72.76
13124;BME280;6627;50.920;12.050;2022-10-18T03:08:09;99968.00;;;20.04;72.93
13124;BME280;6627;50.920;12.050;2022-10-18T03:10:36;99961.19;;;20.10;72.55
13124;BME280;6627;50.920;12.050;2022-10-18T03:13:04;99975.66;;;19.98;73.38
13124;BME280;6627;50.920;12.050;2022-10-18T03:15:31;99942.53;;;19.65;73.61
13124;BME280;6627;50.920;12.050;2022-10-18T03:17:59;99955.53;;;19.85;73.20
13124;BME280;6627;50.920;12.050;2022-10-18T03:20:27;99948.41;;;19.84;73.29
13124;BME280;6627;50.920;12.050;2022-10-18T03:22:56;99942.69;;;19.69;73.27
13124;BME280;6627;50.920;12.050;2022-10-18T03:25:24;99893.88;;;18.80;73.61
13124;BME280;6627;50.920;12.050;2022-10-18T03:27:52;99916.19;;;18.70;76.06
13124;BME280;6627;50.920;12.050;2022-10-18T03:30:20;99891.91;;;18.98;74.71
13124;BME280;6627;50.920;12.050;2022-10-18T03:32:48;99885.41;;;19.03;74.50
13124;BME280;6627;50.920;12.050;2022-10-18T03:35:15;99874.75;;;19.10;74.06
13124;BME280;6627;50.920;12.050;2022-10-18T03:37:43;99884.69;;;19.23;74.12
13124;BME280;6627;50.920;12.050;2022-10-18T03:40:12;99864.97;;;18.92;74.31
13124;BME280;6627;50.920;12.050;2022-10-18T03:42:40;99872.97;;;19.05;74.68
13124;BME280;6627;50.920;12.050;2022-10-18T03:45:08;99865.03;;;18.57;75.59
13124;BME280;6627;50.920;12.050;2022-10-18T03:47:36;99866.19;;;18.38;77.36
13124;BME280;6627;50.920;12.050;2022-10-18T03:50:04;99871.19;;;18.36;78.64
13124;BME280;6627;50.920;12.050;2022-10-18T03:52:32;99887.09;;;18.86;77.96
13124;BME280;6627;50.920;12.050;2022-10-18T03:55:00;99876.69;;;19.09;75.75
13124;BME280;6627;50.920;12.050;2022-10-18T03:57:29;99889.53;;;19.26;75.46
13124;BME280;6627;50.920;12.050;2022-10-18T03:59:56;99881.13;;;18.84;76.27
13124;BME280;6627;50.920;12.050;2022-10-18T04:02:25;99891.16;;;18.72;77.58
13124;BME280;6627;50.920;12.050;2022-10-18T04:04:52;99886.81;;;18.62;78.36
13124;BME280;6627;50.920;12.050;2022-10-18T04:07:20;99877.72;;;18.87;78.02
13124;BME280;6627;50.920;12.050;2022-10-18T04:09:47;99881.84;;;19.11;77.50
13124;BME280;6627;50.920;12.050;2022-10-18T04:12:15;99884.50;;;19.58;75.41
13124;BME280;6627;50.920;12.050;2022-10-18T04:14:44;99890.78;;;19.67;74.36
13124;BME280;6627;50.920;12.050;2022-10-18T04:17:12;99886.81;;;19.47;74.26
13124;BME280;6627;50.920;12.050;2022-10-18T04:19:40;99893.69;;;19.32;74.29
13124;BME280;6627;50.920;12.050;2022-10-18T04:22:08;99890.34;;;19.27;74.12
13124;BME280;6627;50.920;12.050;2022-10-18T04:24:37;99896.72;;;19.10;74.60
13124;BME280;6627;50.920;12.050;2022-10-18T04:27:05;99924.28;;;19.52;73.89
13124;BME280;6627;50.920;12.050;2022-10-18T04:29:33;99902.81;;;18.77;75.90
13124;BME280;6627;50.920;12.050;2022-10-18T04:32:03;99913.13;;;19.27;75.19
13124;BME280;6627;50.920;12.050;2022-10-18T04:34:30;99922.63;;;19.68;74.07
13124;BME280;6627;50.920;12.050;2022-10-18T04:36:58;99911.03;;;19.54;73.80
13124;BME280;6627;50.920;12.050;2022-10-18T04:39:25;99914.91;;;19.23;75.27
13124;BME280;6627;50.920;12.050;2022-10-18T04:41:53;99906.66;;;19.23;75.71
13124;BME280;6627;50.920;12.050;2022-10-18T04:44:21;99898.53;;;19.35;75.24
13124;BME280;6627;50.920;12.050;2022-10-18T04:46:48;99903.59;;;19.63;74.23
13124;BME280;6627;50.920;12.050;2022-10-18T04:49:17;99891.41;;;19.34;74.23
13124;BME280;6627;50.920;12.050;2022-10-18T04:51:45;99896.19;;;19.16;75.25
13124;BME280;6627;50.920;12.050;2022-10-18T04:54:13;99885.66;;;19.27;74.42
13124;BME280;6627;50.920;12.050;2022-10-18T04:56:40;99881.97;;;19.14;74.88
13124;BME280;6627;50.920;12.050;2022-10-18T04:59:08;99891.53;;;19.17;75.05
13124;BME280;6627;50.920;12.050;2022-10-18T05:01:35;99868.91;;;18.64;76.03
13124;BME280;6627;50.920;12.050;2022-10-18T05:04:09;99878.44;;;18.50;78.72
13124;BME280;6627;50.920;12.050;2022-10-18T05:06:38;99849.34;;;18.66;77.99
13124;BME280;6627;50.920;12.050;2022-10-18T05:09:06;99836.81;;;18.39;79.65
13124;BME280;6627;50.920;12.050;2022-10-18T05:11:34;99860.25;;;19.01;78.80
13124;BME280;6627;50.920;12.050;2022-10-18T05:14:02;99837.44;;;19.09;77.26
13124;BME280;6627;50.920;12.050;2022-10-18T05:16:30;99845.38;;;19.31;76.60
13124;BME280;6627;50.920;12.050;2022-10-18T05:18:58;99850.16;;;19.43;75.85
13124;BME280;6627;50.920;12.050;2022-10-18T05:21:26;99846.97;;;19.03;76.94
13124;BME280;6627;50.920;12.050;2022-10-18T05:23:56;99845.84;;;18.39;79.74
13124;BME280;6627;50.920;12.050;2022-10-18T05:26:24;99844.41;;;18.51;81.52
13124;BME280;6627;50.920;12.050;2022-10-18T05:28:52;99842.91;;;18.71;81.13
13124;BME280;6627;50.920;12.050;2022-10-18T05:31:20;99835.78;;;18.78;81.08
13124;BME280;6627;50.920;12.050;2022-10-18T05:33:48;99831.28;;;18.65;81.84
13124;BME280;6627;50.920;12.050;2022-10-18T05:36:17;99849.53;;;19.08;81.67
13124;BME280;6627;50.920;12.050;2022-10-18T05:38:44;99832.41;;;19.11;80.11
13124;BME280;6627;50.920;12.050;2022-10-18T05:41:14;99831.09;;;19.17;80.29
13124;BME280;6627;50.920;12.050;2022-10-18T05:43:42;99828.56;;;19.03;79.17
13124;BME280;6627;50.920;12.050;2022-10-18T05:46:11;99839.94;;;18.84;81.85
13124;BME280;6627;50.920;12.050;2022-10-18T05:48:39;99838.19;;;19.18;80.39
13124;BME280;6627;50.920;12.050;2022-10-18T05:51:07;99832.84;;;18.83;81.73
13124;BME280;6627;50.920;12.050;2022-10-18T05:53:35;99835.50;;;19.09;81.52
13124;BME280;6627;50.920;12.050;2022-10-18T05:56:02;99833.31;;;18.85;82.77
13124;BME280;6627;50.920;12.050;2022-10-18T05:58:32;99848.84;;;19.49;81.04
13124;BME280;6627;50.920;12.050;2022-10-18T06:01:00;99851.03;;;19.56;81.13
13124;BME280;6627;50.920;12.050;2022-10-18T06:03:28;99842.09;;;19.38;80.73
13124;BME280;6627;50.920;12.050;2022-10-18T06:05:58;99844.44;;;19.57;80.19
13124;BME280;6627;50.920;12.050;2022-10-18T06:08:26;99851.69;;;19.82;78.71
13124;BME280;6627;50.920;12.050;2022-10-18T06:10:55;99844.81;;;19.76;77.67
13124;BME280;6627;50.920;12.050;2022-10-18T06:13:23;99854.66;;;19.48;78.95
13124;BME280;6627;50.920;12.050;2022-10-18T06:15:55;99882.50;;;19.97;77.68
13124;BME280;6627;50.920;12.050;2022-10-18T06:18:23;99885.88;;;20.35;75.55
13124;BME280;6627;50.920;12.050;2022-10-18T06:20:56;99904.88;;;20.82;73.44
13124;BME280;6627;50.920;12.050;2022-10-18T06:23:24;99904.66;;;20.87;71.96
13124;BME280;6627;50.920;12.050;2022-10-18T06:25:52;99892.75;;;20.29;72.54
13124;BME280;6627;50.920;12.050;2022-10-18T06:28:20;99914.47;;;20.64;72.30
13124;BME280;6627;50.920;12.050;2022-10-18T06:30:47;99913.59;;;20.84;71.86
13124;BME280;6627;50.920;12.050;2022-10-18T06:33:16;99893.91;;;20.40;72.12
13124;BME280;6627;50.920;12.050;2022-10-18T06:35:54;99912.59;;;20.56;72.03
13124;BME280;6627;50.920;12.050;2022-10-18T06:38:21;99929.56;;;20.91;72.03
13124;BME280;6627;50.920;12.050;2022-10-18T06:40:49;99934.09;;;21.08;70.64
13124;BME280;6627;50.920;12.050;2022-10-18T06:43:17;99916.44;;;20.76;71.44
13124;BME280;6627;50.920;12.050;2022-10-18T06:45:44;99905.84;;;20.45;72.92
13124;BME280;6627;50.920;12.050;2022-10-18T06:48:12;99910.72;;;20.27;74.67
13124;BME280;6627;50.920;12.050;2022-10-18T06:50:41;99896.84;;;20.23;74.40
13124;BME280;6627;50.920;12.050;2022-10-18T06:53:09;99898.91;;;20.26;75.18
13124;BME280;6627;50.920;12.050;2022-10-18T06:55:37;99902.94;;;20.08;76.98
13124;BME280;6627;50.920;12.050;2022-10-18T06:58:06;99905.59;;;20.91;74.70
13124;BME280;6627;50.920;12.050;2022-10-18T07:00:33;99872.38;;;20.42;75.09
13124;BME280;6627;50.920;12.050;2022-10-18T07:03:02;99863.34;;;20.21;75.54
13124;BME280;6627;50.920;12.050;2022-10-18T07:05:31;99864.50;;;20.20;76.41
13124;BME280;6627;50.920;12.050;2022-10-18T07:08:00;99858.56;;;20.30;75.61
13124;BME280;6627;50.920;12.050;2022-10-18T07:10:27;99871.34;;;20.68;74.51
13124;BME280;6627;50.920;12.050;2022-10-18T07:12:55;99884.69;;;20.24;75.48
13124;BME280;6627;50.920;12.050;2022-10-18T07:15:24;99888.16;;;20.54;74.83
13124;BME280;6627;50.920;12.050;2022-10-18T07:17:51;99867.38;;;19.82;78.15
13124;BME280;6627;50.920;12.050;2022-10-18T07:20:19;99885.44;;;20.66;77.44
13124;BME280;6627;50.920;12.050;2022-10-18T07:22:46;99867.47;;;20.81;75.09
13124;BME280;6627;50.920;12.050;2022-10-18T07:25:15;99884.25;;;21.01;74.99
13124;BME280;6627;50.920;12.050;2022-10-18T07:27:43;99875.16;;;20.88;73.31
13124;BME280;6627;50.920;12.050;2022-10-18T07:30:11;99874.84;;;20.89;73.23
13124;BME280;6627;50.920;12.050;2022-10-18T07:32:38;99843.03;;;20.47;73.71
13124;BME280;6627;50.920;12.050;2022-10-18T07:35:06;99869.00;;;20.58;74.16
13124;BME280;6627;50.920;12.050;2022-10-18T07:37:34;99896.19;;;21.29;72.53
13124;BME280;6627;50.920;12.050;2022-10-18T07:40:02;99835.56;;;20.14;73.27
13124;BME280;6627;50.920;12.050;2022-10-18T07:42:31;99885.63;;;20.95;73.70
13124;BME280;6627;50.920;12.050;2022-10-18T07:45:00;99893.47;;;21.66;71.50
13124;BME280;6627;50.920;12.050;2022-10-18T07:47:28;99893.47;;;21.17;72.11
13124;BME280;6627;50.920;12.050;2022-10-18T07:49:55;99912.63;;;21.87;70.33
13124;BME280;6627;50.920;12.050;2022-10-18T07:52:23;99879.00;;;21.08;71.95
13124;BME280;6627;50.920;12.050;2022-10-18T07:54:51;99858.28;;;20.11;74.52
13124;BME280;6627;50.920;12.050;2022-10-18T07:57:18;99872.59;;;20.37;75.31
13124;BME280;6627;50.920;12.050;2022-10-18T07:59:47;99845.00;;;19.41;77.15
13124;BME280;6627;50.920;12.050;2022-10-18T08:02:21;99902.13;;;20.28;77.49
13124;BME280;6627;50.920;12.050;2022-10-18T08:04:49;99889.78;;;19.72;79.44
13124;BME280;6627;50.920;12.050;2022-10-18T08:07:17;99907.94;;;19.64;80.90
13124;BME280;6627;50.920;12.050;2022-10-18T08:09:45;99862.50;;;18.99;83.09
13124;BME280;6627;50.920;12.050;2022-10-18T08:12:12;99865.28;;;19.58;83.60
13124;BME280;6627;50.920;12.050;2022-10-18T08:14:41;99868.19;;;20.24;83.44
13124;BME280;6627;50.920;12.050;2022-10-18T08:17:10;99835.56;;;20.14;81.99
13124;BME280;6627;50.920;12.050;2022-10-18T08:19:37;99835.91;;;19.79;84.46
13124;BME280;6627;50.920;12.050;2022-10-18T08:22:05;99842.53;;;20.32;83.85
13124;BME280;6627;50.920;12.050;2022-10-18T08:24:33;99866.78;;;20.84;82.73
13124;BME280;6627;50.920;12.050;2022-10-18T08:27:00;99859.47;;;21.13;80.67
13124;BME280;6627;50.920;12.050;2022-10-18T08:29:28;99840.34;;;20.59;81.16
13124;BME280;6627;50.920;12.050;2022-10-18T08:31:56;99855.22;;;21.03;80.58
13124;BME280;6627;50.920;12.050;2022-10-18T08:34:25;99864.75;;;20.27;81.92
13124;BME280;6627;50.920;12.050;2022-10-18T08:36:53;99903.38;;;19.68;85.70
13124;BME280;6627;50.920;12.050;2022-10-18T08:39:20;99911.28;;;19.02;89.24
13124;BME280;6627;50.920;12.050;2022-10-18T08:41:58;99933.03;;;20.67;91.31
13124;BME280;6627;50.920;12.050;2022-10-18T08:44:30;99926.16;;;21.19;85.17
13124;BME280;6627;50.920;12.050;2022-10-18T08:47:01;99942.00;;;21.09;84.13
13124;BME280;6627;50.920;12.050;2022-10-18T08:49:36;99926.78;;;21.36;85.85
13124;BME280;6627;50.920;12.050;2022-10-18T08:52:15;99933.19;;;22.02;79.82
13124;BME280;6627;50.920;12.050;2022-10-18T08:54:53;99950.09;;;22.97;74.76
13124;BME280;6627;50.920;12.050;2022-10-18T08:57:25;99971.19;;;23.49;71.28
13124;BME280;6627;50.920;12.050;2022-10-18T08:59:53;99974.91;;;23.09;70.14
13124;BME280;6627;50.920;12.050;2022-10-18T09:02:33;99975.63;;;23.06;69.93
13124;BME280;6627;50.920;12.050;2022-10-18T09:05:15;100009.34;;;23.27;70.18
13124;BME280;6627;50.920;12.050;2022-10-18T09:07:58;100001.53;;;23.29;69.27
13124;BME280;6627;50.920;12.050;2022-10-18T09:10:42;99998.00;;;23.01;70.00
13124;BME280;6627;50.920;12.050;2022-10-18T09:13:31;100008.44;;;23.07;70.01
13124;BME280;6627;50.920;12.050;2022-10-18T09:16:01;99992.88;;;22.47;73.25
13124;BME280;6627;50.920;12.050;2022-10-18T09:18:41;100004.63;;;22.44;73.24
13124;BME280;6627;50.920;12.050;2022-10-18T09:21:18;100022.69;;;22.81;73.33
13124;BME280;6627;50.920;12.050;2022-10-18T09:23:52;100018.75;;;22.95;72.96
13124;BME280;6627;50.920;12.050;2022-10-18T09:26:24;100029.59;;;23.15;72.33
13124;BME280;6627;50.920;12.050;2022-10-18T09:29:01;100009.44;;;22.59;72.87
13124;BME280;6627;50.920;12.050;2022-10-18T09:31:41;100027.88;;;22.30;75.41
13124;BME280;6627;50.920;12.050;2022-10-18T09:34:17;100024.31;;;22.42;76.17
13124;BME280;6627;50.920;12.050;2022-10-18T09:36:51;100015.19;;;22.54;75.66
13124;BME280;6627;50.920;12.050;2022-10-18T09:39:22;100012.09;;;22.83;74.10
13124;BME280;6627;50.920;12.050;2022-10-18T09:41:54;100005.75;;;22.55;74.32
13124;BME280;6627;50.920;12.050;2022-10-18T09:44:26;100013.44;;;21.97;77.66
13124;BME280;6627;50.920;12.050;2022-10-18T09:46:57;100001.91;;;22.07;76.29
13124;BME280;6627;50.920;12.050;2022-10-18T09:49:33;99984.38;;;21.29;79.30
13124;BME280;6627;50.920;12.050;2022-10-18T09:52:08;100009.03;;;21.59;80.59
13124;BME280;6627;50.920;12.050;2022-10-18T09:54:43;100024.00;;;22.31;78.01
13124;BME280;6627;50.920;12.050;2022-10-18T09:57:16;100005.38;;;21.91;78.58
13124;BME280;6627;50.920;12.050;2022-10-18T09:59:49;99989.16;;;22.02;77.44
13124;BME280;6627;50.920;12.050;2022-10-18T10:02:18;99997.38;;;22.39;75.80
13124;BME280;6627;50.920;12.050;2022-10-18T10:04:48;99996.41;;;21.95;76.60
13124;BME280;6627;50.920;12.050;2022-10-18T10:07:19;99991.13;;;21.53;78.23
13124;BME280;6627;50.920;12.050;2022-10-18T10:09:55;100001.91;;;22.07;77.20
13124;BME280;6627;50.920;12.050;2022-10-18T10:12:29;99973.09;;;21.92;75.09
13124;BME280;6627;50.920;12.050;2022-10-18T10:15:15;100014.09;;;22.06;78.20
13124;BME280;6627;50.920;12.050;2022-10-18T10:17:53;99981.63;;;21.29;78.38
13124;BME280;6627;50.920;12.050;2022-10-18T10:20:29;99981.31;;;22.04;76.74
13124;BME280;6627;50.920;12.050;2022-10-18T10:23:08;99982.59;;;21.46;78.30
13124;BME280;6627;50.920;12.050;2022-10-18T10:25:41;99993.75;;;21.49;77.65
13124;BME280;6627;50.920;12.050;2022-10-18T10:28:15;100005.28;;;21.88;77.21
13124;BME280;6627;50.920;12.050;2022-10-18T10:30:44;100029.03;;;22.29;76.26
13124;BME280;6627;50.920;12.050;2022-10-18T10:33:32;99980.69;;;20.68;80.32
13124;BME280;6627;50.920;12.050;2022-10-18T10:36:02;99988.97;;;20.80;83.42
13124;BME280;6627;50.920;12.050;2022-10-18T10:38:32;100014.56;;;21.59;82.73
13124;BME280;6627;50.920;12.050;2022-10-18T10:40:59;100028.72;;;21.70;82.53
13124;BME280;6627;50.920;12.050;2022-10-18T10:43:29;99978.53;;;21.19;80.15
13124;BME280;6627;50.920;12.050;2022-10-18T10:46:02;100006.50;;;22.03;78.58
13124;BME280;6627;50.920;12.050;2022-10-18T10:48:32;100010.19;;;21.95;77.11
13124;BME280;6627;50.920;12.050;2022-10-18T10:51:05;100026.06;;;21.73;77.53
13124;BME280;6627;50.920;12.050;2022-10-18T10:53:41;100029.03;;;21.68;78.20
13124;BME280;6627;50.920;12.050;2022-10-18T10:56:20;100026.41;;;21.72;77.36
13124;BME280;6627;50.920;12.050;2022-10-18T10:58:51;100022.16;;;21.86;76.36
13124;BME280;6627;50.920;12.050;2022-10-18T11:01:26;100016.34;;;21.30;78.19
13124;BME280;6627;50.920;12.050;2022-10-18T11:03:56;100010.47;;;20.86;80.22
13124;BME280;6627;50.920;12.050;2022-10-18T11:07:01;100011.91;;;21.05;79.66
13124;BME280;6627;50.920;12.050;2022-10-18T11:09:49;100010.13;;;21.21;80.27
13124;BME280;6627;50.920;12.050;2022-10-18T11:12:32;100023.97;;;21.46;79.87
13124;BME280;6627;50.920;12.050;2022-10-18T11:15:13;100032.38;;;22.10;77.58
13124;BME280;6627;50.920;12.050;2022-10-18T11:17:53;100027.31;;;21.63;77.07
13124;BME280;6627;50.920;12.050;2022-10-18T11:20:30;100045.63;;;21.92;76.33
13124;BME280;6627;50.920;12.050;2022-10-18T11:23:05;100044.94;;;21.83;76.48
13124;BME280;6627;50.920;12.050;2022-10-18T11:25:57;100042.03;;;21.22;78.56
13124;BME280;6627;50.920;12.050;2022-10-18T11:28:41;100049.06;;;20.99;80.69
13124;BME280;6627;50.920;12.050;2022-10-18T11:31:19;100063.84;;;21.48;81.44
13124;BME280;6627;50.920;12.050;2022-10-18T11:34:12;100035.94;;;21.29;81.66
13124;BME280;6627;50.920;12.050;2022-10-18T11:36:54;100025.38;;;21.52;79.83
13124;BME280;6627;50.920;12.050;2022-10-18T11:39:43;100027.44;;;21.79;78.98
13124;BME280;6627;50.920;12.050;2022-10-18T11:42:23;100024.91;;;21.86;78.06
13124;BME280;6627;50.920;12.050;2022-10-18T11:45:10;100023.09;;;21.78;76.89
13124;BME280;6627;50.920;12.050;2022-10-18T11:47:50;100030.63;;;21.69;77.29
13124;BME280;6627;50.920;12.050;2022-10-18T11:50:29;100055.97;;;22.20;76.24
13124;BME280;6627;50.920;12.050;2022-10-18T11:53:15;100027.78;;;21.65;75.45
13124;BME280;6627;50.920;12.050;2022-10-18T11:56:00;100053.88;;;21.80;76.38
13124;BME280;6627;50.920;12.050;2022-10-18T11:58:50;100053.44;;;21.78;75.55
13124;BME280;6627;50.920;12.050;2022-10-18T12:01:30;100057.91;;;21.83;75.47
13124;BME280;6627;50.920;12.050;2022-10-18T12:04:07;100061.81;;;21.94;75.55
13124;BME280;6627;50.920;12.050;2022-10-18T12:06:39;100069.97;;;22.52;72.99
13124;BME280;6627;50.920;12.050;2022-10-18T12:09:21;100055.28;;;22.23;73.27
13124;BME280;6627;50.920;12.050;2022-10-18T12:12:00;100065.94;;;22.49;71.50
13124;BME280;6627;50.920;12.050;2022-10-18T12:14:36;100046.28;;;21.65;73.04
13124;BME280;6627;50.920;12.050;2022-10-18T12:17:18;100082.06;;;22.35;73.57
13124;BME280;6627;50.920;12.050;2022-10-18T12:19:48;100086.56;;;22.15;74.52
13124;BME280;6627;50.920;12.050;2022-10-18T12:22:24;100072.50;;;21.71;76.34
13124;BME280;6627;50.920;12.050;2022-10-18T12:24:53;100067.78;;;21.72;76.61
13124;BME280;6627;50.920;12.050;2022-10-18T12:27:34;100043.19;;;21.91;74.98
13124;BME280;6627;50.920;12.050;2022-10-18T12:30:14;100031.69;;;21.77;75.92
13124;BME280;6627;50.920;12.050;2022-10-18T12:32:45;100053.06;;;22.04;76.09
13124;BME280;6627;50.920;12.050;2022-10-18T12:35:18;100009.19;;;21.87;74.24
13124;BME280;6627;50.920;12.050;2022-10-18T12:38:11;100032.47;;;22.79;71.94
13124;BME280;6627;50.920;12.050;2022-10-18T12:40:45;100062.06;;;22.90;71.99
13124;BME280;6627;50.920;12.050;2022-10-18T12:43:20;100037.91;;;22.75;70.60
13124;BME280;6627;50.920;12.050;2022-10-18T12:45:54;100043.22;;;22.28;72.24
13124;BME280;6627;50.920;12.050;2022-10-18T12:48:32;100100.50;;;22.83;72.78
13124;BME280;6627;50.920;12.050;2022-10-18T12:51:06;100039.84;;;21.85;73.05
13124;BME280;6627;50.920;12.050;2022-10-18T12:53:39;100074.38;;;22.16;74.31
13124;BME280;6627;50.920;12.050;2022-10-18T12:56:39;100053.88;;;22.54;73.05
13124;BME280;6627;50.920;12.050;2022-10-18T12:59:50;100048.81;;;22.07;74.55
13124;BME280;6627;50.920;12.050;2022-10-18T13:02:29;100062.31;;;22.73;73.21
13124;BME280;6627;50.920;12.050;2022-10-18T13:04:59;100037.56;;;22.24;73.25
13124;BME280;6627;50.920;12.050;2022-10-18T13:07:39;100049.06;;;22.02;74.67
13124;BME280;6627;50.920;12.050;2022-10-18T13:10:40;100056.13;;;22.64;73.81
13124;BME280;6627;50.920;12.050;2022-10-18T13:13:44;100075.97;;;23.22;72.38
13124;BME280;6627;50.920;12.050;2022-10-18T13:16:36;100033.66;;;22.65;71.06
13124;BME280;6627;50.920;12.050;2022-10-18T13:19:20;100061.72;;;22.27;73.40
13124;BME280;6627;50.920;12.050;2022-10-18T13:22:07;100090.47;;;22.38;74.60
13124;BME280;6627;50.920;12.050;2022-10-18T13:24:41;100046.63;;;21.76;73.85
13124;BME280;6627;50.920;12.050;2022-10-18T13:27:26;100065.84;;;22.33;73.75